createdAt,value
2022-11-01T00:02:11.247Z,17.42
2022-11-01T00:07:08.355Z,19.10
2022-11-01T00:12:05.932Z,19.30
2022-11-01T00:17:03.830Z,20.00
2022-11-01T00:22:01.758Z,16.90
2022-11-01T00:26:59.275Z,15.40
2022-11-01T00:31:56.262Z,14.98
2022-11-01T00:36:54.124Z,14.07
2022-11-01T00:41:54.407Z,15.60
2022-11-01T00:46:51.544Z,14.15
2022-11-01T00:51:48.498Z,12.35
2022-11-01T00:56:46.370Z,14.73
2022-11-01T01:01:44.670Z,13.00
2022-11-01T01:06:42.809Z,12.93
2022-11-01T01:11:39.864Z,14.60
2022-11-01T01:16:37.744Z,11.77
2022-11-01T01:21:34.865Z,11.45
2022-11-01T01:26:31.861Z,8.52
2022-11-01T01:31:29.148Z,10.23
2022-11-01T01:36:26.784Z,11.23
2022-11-01T01:41:41.958Z,13.35
2022-11-01T01:46:39.044Z,13.75
2022-11-01T01:51:36.802Z,15.85
2022-11-01T01:56:37.023Z,15.80
2022-11-01T02:01:37.381Z,17.65
2022-11-01T02:06:37.065Z,14.13
2022-11-01T02:11:34.597Z,15.27
2022-11-01T02:16:40.895Z,14.38
2022-11-01T02:21:55.547Z,14.30
2022-11-01T02:27:12.016Z,14.40
2022-11-01T02:32:20.485Z,15.43
2022-11-01T02:37:25.014Z,15.75
2022-11-01T02:42:27.522Z,16.45
2022-11-01T02:47:30.685Z,15.32
2022-11-01T02:52:32.206Z,14.32
2022-11-01T02:57:34.055Z,15.20
2022-11-01T03:02:41.311Z,15.25
2022-11-01T03:07:39.622Z,14.77
2022-11-01T03:12:46.976Z,15.70
2022-11-01T03:17:51.313Z,15.35
2022-11-01T03:22:53.882Z,15.52
2022-11-01T03:27:51.154Z,15.32
2022-11-01T03:32:54.971Z,15.63
2022-11-01T03:37:56.589Z,15.38
2022-11-01T03:42:57.935Z,17.20
2022-11-01T03:47:55.808Z,17.15
2022-11-01T03:52:53.593Z,14.45
2022-11-01T03:57:52.089Z,13.10
2022-11-01T04:02:49.205Z,12.57
2022-11-01T04:07:47.438Z,12.98
2022-11-01T04:12:46.025Z,12.75
2022-11-01T04:18:01.130Z,11.75
2022-11-01T04:23:03.003Z,11.87
2022-11-01T04:28:00.446Z,13.15
2022-11-01T04:33:00.399Z,12.82
2022-11-01T04:37:59.246Z,13.07
2022-11-01T04:42:56.807Z,13.43
2022-11-01T04:48:02.575Z,13.77
2022-11-01T04:53:01.159Z,14.05
2022-11-01T04:57:58.366Z,14.40
2022-11-01T05:03:01.790Z,14.27
2022-11-01T05:08:04.150Z,16.95
2022-11-01T05:13:02.522Z,17.88
2022-11-01T05:18:01.441Z,19.20
2022-11-01T05:22:59.930Z,21.27
2022-11-01T05:28:05.393Z,23.23
2022-11-01T05:33:05.251Z,17.90
2022-11-01T05:38:03.888Z,17.85
2022-11-01T05:43:02.332Z,17.02
2022-11-01T05:48:03.220Z,19.40
2022-11-01T05:53:12.722Z,19.50
2022-11-01T05:58:10.597Z,21.25
2022-11-01T06:03:08.096Z,18.65
2022-11-01T06:08:05.953Z,19.90
2022-11-01T06:13:03.307Z,19.23
2022-11-01T06:18:01.883Z,19.27
2022-11-01T06:22:59.538Z,21.92
2022-11-01T06:27:56.571Z,22.67
2022-11-01T06:32:59.918Z,23.27
2022-11-01T06:38:02.713Z,22.42
2022-11-01T06:43:01.525Z,20.88
2022-11-01T06:47:59.487Z,21.35
2022-11-01T06:53:00.436Z,19.48
2022-11-01T06:58:00.109Z,17.50
2022-11-01T07:03:02.638Z,17.42
2022-11-01T07:08:00.376Z,17.88
2022-11-01T07:12:59.409Z,18.30
2022-11-01T07:17:57.164Z,18.52
2022-11-01T07:22:59.932Z,18.92
2022-11-01T07:27:59.495Z,16.08
2022-11-01T07:32:57.996Z,18.80
2022-11-01T07:37:57.566Z,14.13
2022-11-01T07:42:57.645Z,17.58
2022-11-01T07:48:01.995Z,17.08
2022-11-01T07:53:00.893Z,15.40
2022-11-01T07:57:59.094Z,13.15
2022-11-01T08:03:03.932Z,15.93
2022-11-01T08:08:03.490Z,15.48
2022-11-01T08:13:02.461Z,15.98
2022-11-01T08:18:01.598Z,13.95
2022-11-01T08:23:00.131Z,14.00
2022-11-01T08:28:02.341Z,15.27
2022-11-01T08:33:03.094Z,17.52
2022-11-01T08:38:03.546Z,17.02
2022-11-01T08:43:01.376Z,15.60
2022-11-01T08:47:59.682Z,14.70
2022-11-01T08:52:57.566Z,13.75
2022-11-01T08:57:58.669Z,13.98
2022-11-01T09:02:56.103Z,17.00
2022-11-01T09:07:57.617Z,14.27
2022-11-01T09:12:54.731Z,16.05
2022-11-01T09:17:52.424Z,15.07
2022-11-01T09:22:51.318Z,13.95
2022-11-01T09:27:49.738Z,16.27
2022-11-01T09:32:47.781Z,10.77
2022-11-01T09:37:44.884Z,14.68
2022-11-01T09:42:44.147Z,15.82
2022-11-01T09:47:48.337Z,15.18
2022-11-01T09:52:45.562Z,14.67
2022-11-01T09:57:46.006Z,15.68
2022-11-01T10:03:19.533Z,14.77
2022-11-01T10:08:37.124Z,12.20
2022-11-01T10:13:44.532Z,13.45
2022-11-01T10:18:49.274Z,12.77
2022-11-01T10:23:51.211Z,12.27
2022-11-01T10:28:55.052Z,9.75
2022-11-01T10:34:00.928Z,8.98
2022-11-01T10:44:40.777Z,9.15
2022-11-01T10:50:04.789Z,7.88
2022-11-01T10:55:16.188Z,7.28
2022-11-01T11:00:17.649Z,7.57
2022-11-01T11:05:16.441Z,6.43
2022-11-01T11:10:24.049Z,6.65
2022-11-01T11:15:33.061Z,7.78
2022-11-01T11:20:34.314Z,7.00
2022-11-01T11:25:37.287Z,6.93
2022-11-01T11:30:37.927Z,6.57
2022-11-01T11:35:38.063Z,5.93
2022-11-01T11:40:45.149Z,5.53
2022-11-01T11:45:43.345Z,7.57
2022-11-01T11:50:42.142Z,7.68
2022-11-01T11:55:43.743Z,5.85
2022-11-01T12:00:52.149Z,6.78
2022-11-01T12:05:56.132Z,5.57
2022-11-01T12:10:58.585Z,6.40
2022-11-01T12:16:20.877Z,6.20
2022-11-01T12:21:33.634Z,7.07
2022-11-01T12:26:34.691Z,6.65
2022-11-01T12:31:36.143Z,5.45
2022-11-01T12:36:43.275Z,6.80
2022-11-01T12:41:46.906Z,6.68
2022-11-01T12:46:50.745Z,7.40
2022-11-01T12:51:52.487Z,7.00
2022-11-01T12:56:49.790Z,6.85
2022-11-01T13:02:00.361Z,6.00
2022-11-01T13:07:24.769Z,6.55
2022-11-01T13:12:30.912Z,6.30
2022-11-01T13:17:36.484Z,7.50
2022-11-01T13:22:41.162Z,8.30
2022-11-01T13:32:46.725Z,7.70
2022-11-01T13:42:51.837Z,7.60
2022-11-01T13:47:56.559Z,10.88
2022-11-01T13:57:56.336Z,11.80
2022-11-01T14:02:56.637Z,9.23
2022-11-01T14:08:27.834Z,11.18
2022-11-01T14:13:34.170Z,11.07
2022-11-01T14:19:21.436Z,8.68
2022-11-01T14:24:25.276Z,11.02
2022-11-01T14:29:23.026Z,10.57
2022-11-01T14:34:31.312Z,11.35
2022-11-01T14:39:37.008Z,10.77
2022-11-01T14:44:38.715Z,9.50
2022-11-01T14:49:43.704Z,12.40
2022-11-01T14:59:41.013Z,10.15
2022-11-01T15:04:41.854Z,11.73
2022-11-01T15:09:54.388Z,12.45
2022-11-01T15:14:54.003Z,9.85
2022-11-01T15:19:56.267Z,12.55
2022-11-01T15:24:57.805Z,11.65
2022-11-01T15:29:56.103Z,13.45
2022-11-01T15:34:55.365Z,14.55
2022-11-01T15:39:53.094Z,19.65
2022-11-01T15:44:53.957Z,19.70
2022-11-01T15:50:04.791Z,23.65
2022-11-01T15:55:11.148Z,21.40
2022-11-01T16:00:17.564Z,17.30
2022-11-01T16:05:19.865Z,23.35
2022-11-01T16:10:21.852Z,21.20
2022-11-01T16:15:22.960Z,22.02
2022-11-01T16:20:31.391Z,22.83
2022-11-01T16:25:35.536Z,24.58
2022-11-01T16:30:42.133Z,27.92
2022-11-01T16:35:40.880Z,20.33
2022-11-01T16:40:39.180Z,28.23
2022-11-01T16:45:37.593Z,28.63
2022-11-01T16:50:38.301Z,25.80
2022-11-01T16:55:39.624Z,27.63
2022-11-01T17:00:38.369Z,29.58
2022-11-01T17:05:35.962Z,22.92
2022-11-01T17:10:37.328Z,23.90
2022-11-01T17:15:39.594Z,29.25
2022-11-01T17:20:39.978Z,27.63
2022-11-01T17:25:46.192Z,25.30
2022-11-01T17:30:47.242Z,24.30
2022-11-01T17:35:47.910Z,24.80
2022-11-01T17:40:46.902Z,22.33
2022-11-01T17:45:44.277Z,24.75
2022-11-01T17:50:42.423Z,23.58
2022-11-01T17:55:40.430Z,23.90
2022-11-01T18:00:41.701Z,24.55
2022-11-01T18:05:38.728Z,21.90
2022-11-01T18:10:42.967Z,20.52
2022-11-01T18:16:08.370Z,20.23
2022-11-01T18:21:15.961Z,20.88
2022-11-01T18:26:19.888Z,21.00
2022-11-01T18:31:23.244Z,19.85
2022-11-01T18:36:24.460Z,17.95
2022-11-01T18:41:24.068Z,18.50
2022-11-01T18:46:26.378Z,18.90
2022-11-01T18:51:27.816Z,18.88
2022-11-01T18:56:26.047Z,19.95
2022-11-01T19:01:30.822Z,22.73
2022-11-01T19:06:33.337Z,18.90
2022-11-01T19:11:31.644Z,18.55
2022-11-01T19:16:29.593Z,19.95
2022-11-01T19:21:31.405Z,23.70
2022-11-01T19:26:33.636Z,21.35
2022-11-01T19:31:36.503Z,19.75
2022-11-01T19:41:44.660Z,22.60
2022-11-01T19:46:42.648Z,20.38
2022-11-01T19:51:41.799Z,25.60
2022-11-01T19:56:39.636Z,23.75
2022-11-01T20:01:40.256Z,22.45
2022-11-01T20:06:43.400Z,27.15
2022-11-01T20:11:40.825Z,24.00
2022-11-01T20:16:37.872Z,22.33
2022-11-01T20:21:34.914Z,23.45
2022-11-01T20:26:32.490Z,26.20
2022-11-01T20:31:29.983Z,25.48
2022-11-01T20:36:28.369Z,25.42
2022-11-01T20:41:25.870Z,23.70
2022-11-01T20:46:24.040Z,24.85
2022-11-01T20:51:21.145Z,25.02
2022-11-01T20:56:18.912Z,26.48
2022-11-01T21:01:18.389Z,24.67
2022-11-01T21:06:18.324Z,25.70
2022-11-01T21:11:42.979Z,28.10
2022-11-01T21:16:40.236Z,25.35
2022-11-01T21:21:45.344Z,27.95
2022-11-01T21:26:44.929Z,30.05
2022-11-01T21:31:43.104Z,30.70
2022-11-01T21:36:45.047Z,30.40
2022-11-01T21:41:46.748Z,25.67
2022-11-01T21:46:47.566Z,23.92
2022-11-01T21:51:45.483Z,21.00
2022-11-01T21:56:42.460Z,18.17
2022-11-01T22:01:41.424Z,18.52
2022-11-01T22:06:38.794Z,16.65
2022-11-01T22:11:36.968Z,17.33
2022-11-01T22:16:34.209Z,14.90
2022-11-01T22:21:31.825Z,15.48
2022-11-01T22:26:29.345Z,15.95
2022-11-01T22:31:27.022Z,15.00
2022-11-01T22:36:25.642Z,13.57
2022-11-01T22:41:29.983Z,15.73
2022-11-01T22:46:40.266Z,15.95
2022-11-01T22:51:43.084Z,14.38
2022-11-01T22:56:40.089Z,14.20
2022-11-01T23:01:38.000Z,13.45
2022-11-01T23:06:35.343Z,12.30
2022-11-01T23:11:50.693Z,11.98
2022-11-01T23:16:49.270Z,11.25
2022-11-01T23:21:46.125Z,12.55
2022-11-01T23:26:43.068Z,12.35
2022-11-01T23:31:40.254Z,12.25
2022-11-01T23:36:38.898Z,10.95
2022-11-01T23:41:39.327Z,11.02
2022-11-01T23:46:36.442Z,10.57
2022-11-01T23:51:33.306Z,10.27
2022-11-01T23:56:30.822Z,11.48
